This is the latest recevied weather packets stored in our database for station/object G8SIB-9. If no packets are shown the sender has not sent any weather packets the latest 10 day(s).
| Time | Temp. | Humidity | Pressure | Rain* | Wind** | Luminosity | Snow |
|---|---|---|---|---|---|---|---|
| 1777648705 | 21.67° C | 33% | 1016.4 hPa | 0 mm | - | - | - |
| 1777648104 | 22.22° C | 32% | 1016.5 hPa | 0 mm | - | - | - |
| 1777647504 | 22.22° C | 31% | 1016.6 hPa | 0 mm | - | - | - |
| 1777646904 | 22.22° C | 29% | 1016.7 hPa | 0 mm | - | - | - |
| 1777646299 | 21.67° C | 34% | 1019.5 hPa | 0 mm | - | - | - |
| 1777645699 | 22.22° C | 29% | 1016.8 hPa | 0 mm | - | - | - |
| 1777645098 | 22.78° C | 28% | 1016.8 hPa | 0 mm | - | - | - |
| 1777644497 | 22.22° C | 28% | 1016.9 hPa | 0 mm | - | - | - |
| 1777643896 | 22.78° C | 27% | 1016.9 hPa | 0 mm | - | - | - |
| 1777643296 | 23.33° C | 26% | 1016.9 hPa | 0 mm | - | - | - |
| 1777642695 | 23.33° C | 26% | 1016.9 hPa | 0 mm | - | - | - |
| 1777642095 | 23.89° C | 26% | 1016.9 hPa | 0 mm | - | - | - |
| 1777641494 | 23.89° C | 27% | 1017 hPa | 0 mm | - | - | - |
| 1777640894 | 23.33° C | 26% | 1017 hPa | 0 mm | - | - | - |
| 1777640293 | 23.89° C | 26% | 1017.1 hPa | 0 mm | - | - | - |
| 1777639692 | 23.33° C | 26% | 1017.1 hPa | 0 mm | - | - | - |
| 1777639091 | 23.33° C | 26% | 1017.2 hPa | 0 mm | - | - | - |
| 1777638490 | 23.33° C | 26% | 1017.3 hPa | 0 mm | - | - | - |
| 1777637890 | 22.78° C | 27% | 1017.3 hPa | 0 mm | - | - | - |
| 1777637289 | 23.33° C | 27% | 1017.5 hPa | 0 mm | - | - | - |
| 1777636688 | 23.33° C | 26% | 1017.5 hPa | 0 mm | - | - | - |
| 1777636084 | 22.78° C | 27% | 1017.6 hPa | 0 mm | - | - | - |
| 1777635484 | 22.78° C | 26% | 1017.6 hPa | 0 mm | - | - | - |
| 1777634883 | 22.22° C | 26% | 1017.7 hPa | 0 mm | - | - | - |
| 1777634282 | 22.78° C | 27% | 1017.8 hPa | 0 mm | - | - | - |
* Rain latest hour (hover to see other rain measurements)
** Current wind speed in m/s (hover to see current wind gust speed)